createdAt,value
2018-11-22T12:17:56.335Z,100929.57
2018-11-22T12:20:23.805Z,100925.92
2018-11-22T12:22:52.655Z,100926.31
2018-11-22T12:25:22.164Z,100925.23
2018-11-22T12:27:51.226Z,100928.02
2018-11-22T12:30:20.148Z,100921.80
2018-11-22T12:32:53.015Z,100926.33
2018-11-22T12:35:25.891Z,100921.91
2018-11-22T12:37:58.784Z,100919.74
2018-11-22T12:40:26.248Z,100922.49
2018-11-22T12:42:53.732Z,100917.77
2018-11-22T12:45:21.185Z,100919.52
2018-11-22T12:47:49.172Z,100915.33
2018-11-22T12:50:16.623Z,100916.69
2018-11-22T12:52:44.067Z,100913.81
2018-11-22T12:55:12.015Z,100919.83
2018-11-22T12:57:39.484Z,100917.77
2018-11-22T13:00:06.971Z,100909.41
2018-11-22T13:02:34.425Z,100916.27
2018-11-22T13:05:01.923Z,100910.66
2018-11-22T13:07:29.447Z,100912.32
2018-11-22T13:09:56.938Z,100905.15
2018-11-22T13:12:24.391Z,100904.56
2018-11-22T13:14:51.863Z,100914.30
2018-11-22T13:17:19.338Z,100912.63
2018-11-22T13:19:46.815Z,100907.09
2018-11-22T13:22:14.267Z,100917.12
2018-11-22T13:24:41.795Z,100905.11
2018-11-22T13:27:09.311Z,100905.19
2018-11-22T13:29:36.754Z,100911.70
2018-11-22T13:32:04.209Z,100907.48
2018-11-22T13:34:31.647Z,100913.09
2018-11-22T13:36:59.123Z,100906.59
2018-11-22T13:39:26.551Z,100914.57
2018-11-22T13:41:53.998Z,100912.59
2018-11-22T13:44:21.888Z,100916.31
2018-11-22T13:46:49.367Z,100920.46
2018-11-22T13:49:17.635Z,100917.59
2018-11-22T13:51:45.094Z,100914.65
2018-11-22T13:54:12.537Z,100912.36
2018-11-22T13:56:39.988Z,100911.12
2018-11-22T13:59:07.434Z,100916.16
2018-11-22T14:01:34.898Z,100915.46
2018-11-22T14:04:02.407Z,100917.71
2018-11-22T14:06:30.122Z,100928.33
2018-11-22T14:08:57.584Z,100930.97
2018-11-22T14:11:25.131Z,100925.97
2018-11-22T14:13:52.573Z,100922.02
2018-11-22T14:16:20.056Z,100925.19
2018-11-22T14:18:47.534Z,100923.14
2018-11-22T14:21:15.174Z,100922.25
2018-11-22T14:23:42.625Z,100921.39
2018-11-22T14:26:10.111Z,100925.23
2018-11-22T14:28:37.621Z,100926.51
2018-11-22T14:31:05.067Z,100926.39
2018-11-22T14:33:32.518Z,100931.90
2018-11-22T14:35:59.984Z,100924.80
2018-11-22T14:38:27.439Z,100931.78
2018-11-22T14:40:54.897Z,100929.06
2018-11-22T14:43:22.359Z,100931.13
2018-11-22T14:45:49.819Z,100933.45
2018-11-22T14:48:17.281Z,100932.56
2018-11-22T14:50:44.741Z,100939.57
2018-11-22T14:53:12.219Z,100941.44
2018-11-22T14:55:39.782Z,100938.10
2018-11-22T14:58:07.630Z,100929.80
2018-11-22T15:00:35.103Z,100943.48
2018-11-22T15:03:02.546Z,100940.42
2018-11-22T15:05:29.991Z,100941.12
2018-11-22T15:07:57.439Z,100937.55
2018-11-22T15:10:24.933Z,100936.70
2018-11-22T15:12:52.398Z,100934.80
2018-11-22T15:15:21.270Z,100939.92
2018-11-22T15:17:48.765Z,100939.08
2018-11-22T15:20:17.522Z,100933.33
2018-11-22T15:22:45.916Z,100935.23
2018-11-22T15:25:14.801Z,100935.48
2018-11-22T15:27:42.974Z,100933.01
2018-11-22T15:30:11.789Z,100936.58
2018-11-22T15:32:39.280Z,100928.59
2018-11-22T15:35:06.740Z,100932.00
2018-11-22T15:37:34.183Z,100932.81
2018-11-22T15:40:01.647Z,100931.30
2018-11-22T15:42:29.107Z,100932.06
2018-11-22T15:44:56.546Z,100934.81
2018-11-22T15:47:24.008Z,100942.99
2018-11-22T15:49:51.447Z,100940.92
2018-11-22T15:52:18.903Z,100940.48
2018-11-22T15:54:46.346Z,100936.54
2018-11-22T15:57:13.874Z,100941.65
2018-11-22T15:59:41.303Z,100940.28
2018-11-22T16:02:08.791Z,100947.00
2018-11-22T16:04:36.247Z,100947.20
2018-11-22T16:07:03.719Z,100943.63
2018-11-22T16:09:31.197Z,100945.22
2018-11-22T16:11:58.660Z,100944.96
2018-11-22T16:14:26.133Z,100946.29
2018-11-22T16:16:53.590Z,100947.31
2018-11-22T16:19:21.031Z,100947.27
2018-11-22T16:21:48.479Z,100946.89
2018-11-22T16:24:15.939Z,100952.70
2018-11-22T16:26:43.387Z,100948.67
2018-11-22T16:29:10.843Z,100949.38
2018-11-22T16:31:38.291Z,100947.53
2018-11-22T16:34:05.727Z,100949.95
2018-11-22T16:36:33.188Z,100946.69
2018-11-22T16:39:00.662Z,100942.48
2018-11-22T16:41:28.124Z,100946.95
2018-11-22T16:43:55.605Z,100953.92
2018-11-22T16:46:23.070Z,100945.67
2018-11-22T16:48:50.508Z,100944.20
2018-11-22T16:51:17.967Z,100948.03
2018-11-22T16:53:45.424Z,100947.34
2018-11-22T16:56:12.892Z,100938.19
2018-11-22T16:58:40.356Z,100947.27
2018-11-22T17:01:07.793Z,100944.19
2018-11-22T17:03:35.270Z,100948.30
2018-11-22T17:06:02.723Z,100941.83
2018-11-22T17:08:30.189Z,100945.30
2018-11-22T17:10:57.599Z,100942.66
2018-11-22T17:13:25.054Z,100936.66
2018-11-22T17:15:52.499Z,100941.77
2018-11-22T17:18:19.934Z,100953.66
2018-11-22T17:20:47.366Z,100949.58
2018-11-22T17:23:14.798Z,100950.09
2018-11-22T17:25:42.251Z,100957.69
2018-11-22T17:28:10.027Z,100956.40
2018-11-22T17:30:39.833Z,100962.61
2018-11-22T17:33:07.278Z,100963.05
2018-11-22T17:35:34.723Z,100957.48
2018-11-22T17:38:03.564Z,100966.84
2018-11-22T17:40:39.945Z,100970.02
2018-11-22T17:43:07.474Z,100963.19
2018-11-22T17:45:37.423Z,100961.27
2018-11-22T17:48:04.923Z,100966.08
2018-11-22T17:50:33.001Z,100956.66
2018-11-22T17:53:00.708Z,100956.40
2018-11-22T17:58:02.828Z,100949.06
2018-11-22T18:00:31.983Z,100947.28
2018-11-22T18:03:00.596Z,100947.25
2018-11-22T18:05:28.060Z,100948.95
2018-11-22T18:07:55.514Z,100946.28
2018-11-22T18:10:24.452Z,100945.53
2018-11-22T18:12:53.189Z,100940.34
2018-11-22T18:15:21.523Z,100939.92
2018-11-22T18:17:49.432Z,100945.95
2018-11-22T18:20:20.434Z,100943.08
2018-11-22T18:22:48.703Z,100939.92
2018-11-22T18:25:18.320Z,100937.85
2018-11-22T18:27:45.887Z,100940.14
2018-11-22T18:30:14.761Z,100942.68
2018-11-22T18:32:42.643Z,100942.20
2018-11-22T18:35:10.803Z,100945.53
2018-11-22T18:37:38.458Z,100947.81
2018-11-22T18:40:05.903Z,100945.66
2018-11-22T18:42:33.685Z,100938.55
2018-11-22T18:45:01.126Z,100943.28
2018-11-22T18:47:28.589Z,100938.47
2018-11-22T18:49:56.034Z,100940.33
2018-11-22T18:52:23.551Z,100935.58
2018-11-22T18:54:50.988Z,100941.16
2018-11-22T18:57:18.467Z,100943.48
2018-11-22T18:59:45.907Z,100933.21
2018-11-22T19:02:13.354Z,100938.64
2018-11-22T19:04:40.786Z,100937.97
2018-11-22T19:07:08.217Z,100932.44
2018-11-22T19:09:35.660Z,100932.82
2018-11-22T19:12:03.958Z,100937.77
2018-11-22T19:14:31.419Z,100936.48
2018-11-22T19:16:58.849Z,100939.05
2018-11-22T19:19:26.299Z,100948.77
2018-11-22T19:21:53.749Z,100942.28
2018-11-22T19:24:21.590Z,100950.43
2018-11-22T19:26:49.281Z,100947.17
2018-11-22T19:29:16.740Z,100956.66
2018-11-22T19:31:44.183Z,100948.86
2018-11-22T19:34:11.630Z,100949.44
2018-11-22T19:36:39.071Z,100956.21
2018-11-22T19:39:06.502Z,100954.63
2018-11-22T19:41:33.947Z,100951.30
2018-11-22T19:44:01.382Z,100954.25
2018-11-22T19:46:28.822Z,100946.56
2018-11-22T19:48:56.275Z,100946.89
2018-11-22T19:51:23.722Z,100954.38
2018-11-22T19:53:51.169Z,100954.94
2018-11-22T19:56:18.607Z,100951.16
2018-11-22T19:58:46.059Z,100956.01
2018-11-22T20:01:13.962Z,100960.12
2018-11-22T20:03:41.426Z,100955.81
2018-11-22T20:06:08.909Z,100962.09
2018-11-22T20:08:36.354Z,100967.18
2018-11-22T20:11:03.789Z,100967.38
2018-11-22T20:13:31.232Z,100966.91
2018-11-22T20:15:58.689Z,100966.48
2018-11-22T20:18:26.138Z,100961.48
2018-11-22T20:20:53.581Z,100969.66
2018-11-22T20:23:21.926Z,100968.73
2018-11-22T20:25:48.508Z,100967.68
2018-11-22T20:28:15.958Z,100970.82
2018-11-22T20:30:44.786Z,100969.70
2018-11-22T20:33:12.225Z,100968.14
2018-11-22T20:35:39.702Z,100974.50
2018-11-22T20:38:07.262Z,100972.37
2018-11-22T20:40:34.709Z,100974.66
2018-11-22T20:43:02.315Z,100970.98
2018-11-22T20:45:30.455Z,100963.42
2018-11-22T20:48:00.964Z,100966.88
2018-11-22T20:50:28.949Z,100969.23
2018-11-22T20:52:56.438Z,100955.35
2018-11-22T20:55:25.305Z,100969.43
2018-11-22T20:57:54.308Z,100970.13
2018-11-22T21:00:23.190Z,100974.35
2018-11-22T21:02:50.637Z,100964.50
2018-11-22T21:05:18.921Z,100966.48
2018-11-22T21:07:46.692Z,100974.89
2018-11-22T21:10:15.590Z,100970.59
2018-11-22T21:12:43.030Z,100969.63
2018-11-22T21:15:10.736Z,100972.33
2018-11-22T21:17:38.574Z,100964.50
2018-11-22T21:20:06.022Z,100961.98
2018-11-22T21:22:33.471Z,100962.34
2018-11-22T21:25:01.046Z,100970.05
2018-11-22T21:27:28.488Z,100970.24
2018-11-22T21:29:55.925Z,100968.66
2018-11-22T21:32:23.447Z,100963.11
2018-11-22T21:34:50.898Z,100969.43
2018-11-22T21:37:18.331Z,100972.49
2018-11-22T21:39:45.777Z,100977.61
2018-11-22T21:42:13.219Z,100979.28
2018-11-22T21:44:40.668Z,100977.10
2018-11-22T21:47:08.113Z,100983.19
2018-11-22T21:49:35.581Z,100984.47
2018-11-22T21:52:03.019Z,100994.13
2018-11-22T21:54:30.566Z,100984.16
2018-11-22T21:56:57.990Z,100986.37
2018-11-22T21:59:25.433Z,100987.50
2018-11-22T22:01:52.935Z,100986.33
2018-11-22T22:04:20.397Z,100989.59
2018-11-22T22:06:47.837Z,100986.53
2018-11-22T22:09:15.283Z,100985.95
2018-11-22T22:11:42.768Z,100985.16
2018-11-22T22:14:10.210Z,100985.48
2018-11-22T22:16:37.646Z,100985.55
2018-11-22T22:19:05.106Z,100979.61
2018-11-22T22:21:32.537Z,100987.43
2018-11-22T22:23:59.979Z,100976.28
2018-11-22T22:26:27.431Z,100983.84
2018-11-22T22:28:54.867Z,100983.50
2018-11-22T22:31:22.290Z,100980.39
2018-11-22T22:33:50.462Z,100983.95
2018-11-22T22:36:17.913Z,100974.30
2018-11-22T22:38:45.893Z,100974.70
2018-11-22T22:41:13.326Z,100987.16
2018-11-22T22:43:40.846Z,100978.68
2018-11-22T22:46:08.476Z,100979.05
2018-11-22T22:48:35.908Z,100978.48
2018-11-22T22:51:03.351Z,100983.41
2018-11-22T22:53:30.775Z,100982.37
2018-11-22T22:55:58.236Z,100978.96
2018-11-22T22:58:25.687Z,100977.49
2018-11-22T23:00:53.150Z,100982.49
2018-11-22T23:03:20.577Z,100976.09
2018-11-22T23:05:48.022Z,100982.11
2018-11-22T23:08:15.467Z,100978.96
2018-11-22T23:10:42.905Z,100976.21
2018-11-22T23:13:10.499Z,100979.86
2018-11-22T23:15:37.961Z,100980.44
2018-11-22T23:18:05.396Z,100985.13
2018-11-22T23:20:34.211Z,100972.49
2018-11-22T23:23:01.658Z,100972.95
2018-11-22T23:25:29.738Z,100970.20
2018-11-22T23:27:57.229Z,100964.20
2018-11-22T23:30:26.842Z,100958.49
2018-11-22T23:32:56.423Z,100966.05
2018-11-22T23:35:23.396Z,100963.81
2018-11-22T23:37:51.231Z,100965.48
2018-11-22T23:40:19.938Z,100968.92
2018-11-22T23:42:47.569Z,100973.96
2018-11-22T23:45:16.260Z,100973.27
2018-11-22T23:47:44.122Z,100967.77
2018-11-22T23:50:13.114Z,100969.04
2018-11-22T23:52:41.082Z,100972.06
2018-11-22T23:55:09.069Z,100967.95
2018-11-22T23:57:36.714Z,100967.38
